Terminal Aerodrome Forecast
Issued by NWS Pittsburgh, PA

Home | Current Version | Previous Version | Text Only | Print | Product List | Glossary On
Versions: 1 2 3 4 5 6 7 8 9 10 11 12 13 14 15 16 17 18 19 20 21 22 23 24 25 26 27 28 29 30
000
FTUS41 KPBZ 191726
TAFPIT
TAF
KPIT 191726Z 1918/2024 28014G26KT P6SM VCSH OVC040
      TEMPO 1918/1921 3SM -SHSN OVC025
     FM200000 28012G22KT P6SM OVC025
     FM200800 26010G19KT P6SM BKN035
     FM201100 25010KT P6SM SCT080=

USA.gov is the U.S. government's official web portal to all federal, state and local government web resources and services.